createdAt,value
2018-07-03T00:00:14.119Z,101517.69
2018-07-03T00:02:42.498Z,101514.16
2018-07-03T00:05:10.902Z,101511.97
2018-07-03T00:07:39.284Z,101510.20
2018-07-03T00:10:09.724Z,101513.67
2018-07-03T00:12:38.419Z,101511.91
2018-07-03T00:15:07.326Z,101514.07
2018-07-03T00:17:35.801Z,101510.11
2018-07-03T00:20:04.894Z,101514.86
2018-07-03T00:22:33.271Z,101511.33
2018-07-03T00:25:01.639Z,101511.72
2018-07-03T00:27:30.035Z,101505.98
2018-07-03T00:29:58.405Z,101511.61
2018-07-03T00:32:26.794Z,101514.17
2018-07-03T00:34:55.168Z,101511.48
2018-07-03T00:37:23.567Z,101512.77
2018-07-03T00:39:51.930Z,101511.84
2018-07-03T00:42:20.325Z,101507.01
2018-07-03T00:44:48.694Z,101511.77
2018-07-03T00:47:17.087Z,101514.80
2018-07-03T00:49:45.452Z,101513.00
2018-07-03T00:52:13.855Z,101509.43
2018-07-03T00:54:42.234Z,101504.16
2018-07-03T00:57:10.622Z,101509.31
2018-07-03T00:59:50.290Z,101513.20
2018-07-03T01:02:18.699Z,101503.58
2018-07-03T01:04:47.063Z,101503.14
2018-07-03T01:07:15.456Z,101504.02
2018-07-03T01:09:43.825Z,101507.46
2018-07-03T01:12:12.209Z,101507.46
2018-07-03T01:14:40.583Z,101506.56
2018-07-03T01:17:09.002Z,101514.39
2018-07-03T01:19:37.382Z,101516.13
2018-07-03T01:22:05.891Z,101518.28
2018-07-03T01:24:34.259Z,101519.12
2018-07-03T01:27:02.658Z,101518.22
2018-07-03T01:29:31.074Z,101514.70
2018-07-03T01:31:59.459Z,101511.63
2018-07-03T01:34:27.853Z,101515.08
2018-07-03T01:36:56.242Z,101514.17
2018-07-03T01:39:24.799Z,101514.98
2018-07-03T01:41:53.374Z,101517.12
2018-07-03T01:44:21.742Z,101519.23
2018-07-03T01:46:50.469Z,101513.95
2018-07-03T01:49:18.835Z,101517.80
2018-07-03T01:51:47.218Z,101519.43
2018-07-03T01:54:15.582Z,101517.19
2018-07-03T01:56:44.096Z,101512.80
2018-07-03T01:59:12.483Z,101511.47
2018-07-03T02:01:41.466Z,101507.52
2018-07-03T02:04:10.026Z,101505.31
2018-07-03T02:06:38.530Z,101503.97
2018-07-03T02:09:10.054Z,101503.53
2018-07-03T02:11:38.443Z,101502.20
2018-07-03T02:14:07.202Z,101499.98
2018-07-03T02:16:35.611Z,101499.08
2018-07-03T02:19:04.404Z,101499.91
2018-07-03T02:21:33.089Z,101493.36
2018-07-03T02:24:01.471Z,101496.40
2018-07-03T02:26:29.846Z,101490.68
2018-07-03T02:28:58.229Z,101497.63
2018-07-03T02:31:26.590Z,101501.11
2018-07-03T02:33:55.110Z,101501.06
2018-07-03T02:36:23.866Z,101499.73
2018-07-03T02:38:52.262Z,101501.42
2018-07-03T02:41:20.834Z,101502.25
2018-07-03T02:43:49.237Z,101504.78
2018-07-03T02:46:17.610Z,101508.25
2018-07-03T02:48:46.010Z,101501.20
2018-07-03T02:51:14.454Z,101499.89
2018-07-03T02:53:42.876Z,101504.23
2018-07-03T02:56:11.254Z,101513.31
2018-07-03T02:58:39.654Z,101508.10
2018-07-03T03:01:08.023Z,101508.53
2018-07-03T03:03:36.583Z,101507.70
2018-07-03T03:06:04.959Z,101510.75
2018-07-03T03:08:33.356Z,101509.52
2018-07-03T03:11:01.728Z,101503.91
2018-07-03T03:13:30.138Z,101503.48
2018-07-03T03:15:58.519Z,101504.78
2018-07-03T03:18:26.886Z,101502.22
2018-07-03T03:20:55.278Z,101487.02
2018-07-03T03:23:23.638Z,101495.30
2018-07-03T03:25:52.033Z,101494.87
2018-07-03T03:28:20.404Z,101494.87
2018-07-03T03:30:48.793Z,101500.08
2018-07-03T03:33:17.174Z,101502.25
2018-07-03T03:35:45.594Z,101495.74
2018-07-03T03:38:13.978Z,101496.21
2018-07-03T03:40:42.371Z,101499.30
2018-07-03T03:43:10.738Z,101497.63
2018-07-03T03:45:39.122Z,101495.50
2018-07-03T03:48:07.594Z,101496.44
2018-07-03T03:50:35.986Z,101498.22
2018-07-03T03:53:04.359Z,101503.53
2018-07-03T03:55:32.765Z,101502.70
2018-07-03T03:58:01.138Z,101497.73
2018-07-03T04:00:29.527Z,101497.75
2018-07-03T04:02:57.906Z,101499.97
2018-07-03T04:05:26.319Z,101502.53
2018-07-03T04:07:55.055Z,101501.14
2018-07-03T04:10:23.442Z,101497.53
2018-07-03T04:12:51.807Z,101493.80
2018-07-03T04:15:20.262Z,101496.09
2018-07-03T04:17:48.630Z,101499.17
2018-07-03T04:20:17.028Z,101493.39
2018-07-03T04:22:45.401Z,101499.88
2018-07-03T04:25:13.794Z,101499.26
2018-07-03T04:27:42.163Z,101498.22
2018-07-03T04:30:10.702Z,101495.80
2018-07-03T04:32:39.183Z,101496.45
2018-07-03T04:35:07.617Z,101491.37
2018-07-03T04:37:35.991Z,101493.28
2018-07-03T04:40:04.390Z,101490.80
2018-07-03T04:42:33.006Z,101485.69
2018-07-03T04:45:01.429Z,101490.73
2018-07-03T04:47:29.951Z,101483.03
2018-07-03T04:49:58.318Z,101490.69
2018-07-03T04:52:26.706Z,101484.25
2018-07-03T04:54:55.170Z,101484.17
2018-07-03T04:57:23.550Z,101476.78
2018-07-03T04:59:51.914Z,101479.56
2018-07-03T05:02:20.305Z,101482.78
2018-07-03T05:04:48.689Z,101494.78
2018-07-03T05:07:17.087Z,101486.20
2018-07-03T05:09:45.454Z,101486.73
2018-07-03T05:12:13.846Z,101492.47
2018-07-03T05:14:42.214Z,101490.64
2018-07-03T05:17:10.623Z,101492.25
2018-07-03T05:19:38.991Z,101494.64
2018-07-03T05:22:07.388Z,101491.83
2018-07-03T05:24:35.847Z,101486.56
2018-07-03T05:27:04.194Z,101483.58
2018-07-03T05:29:32.558Z,101493.78
2018-07-03T05:32:00.953Z,101488.13
2018-07-03T05:34:29.318Z,101488.70
2018-07-03T05:36:57.806Z,101493.91
2018-07-03T05:39:26.270Z,101493.92
2018-07-03T05:41:54.675Z,101492.61
2018-07-03T05:44:23.148Z,101496.56
2018-07-03T05:46:51.538Z,101496.95
2018-07-03T05:49:19.897Z,101498.67
2018-07-03T05:51:48.336Z,101498.20
2018-07-03T05:54:16.685Z,101496.83
2018-07-03T05:56:45.058Z,101498.95
2018-07-03T05:59:13.449Z,101501.52
2018-07-03T06:01:41.823Z,101505.86
2018-07-03T06:04:10.230Z,101510.16
2018-07-03T06:06:38.597Z,101511.36
2018-07-03T06:09:08.938Z,101508.19
2018-07-03T06:11:37.332Z,101515.11
2018-07-03T06:14:05.722Z,101510.17
2018-07-03T06:16:34.351Z,101504.80
2018-07-03T06:19:02.734Z,101506.47
2018-07-03T06:21:31.305Z,101511.55
2018-07-03T06:23:59.778Z,101509.23
2018-07-03T06:26:28.165Z,101506.44
2018-07-03T06:28:56.584Z,101498.77
2018-07-03T06:31:25.251Z,101495.97
2018-07-03T06:33:53.751Z,101495.01
2018-07-03T06:36:22.117Z,101498.37
2018-07-03T06:38:50.507Z,101499.13
2018-07-03T06:41:18.883Z,101492.81
2018-07-03T06:43:47.286Z,101492.22
2018-07-03T06:46:15.655Z,101492.59
2018-07-03T06:48:44.083Z,101502.14
2018-07-03T06:51:12.450Z,101501.05
2018-07-03T06:53:40.945Z,101497.31
2018-07-03T06:56:09.313Z,101499.36
2018-07-03T06:58:37.706Z,101496.94
2018-07-03T07:01:06.070Z,101498.54
2018-07-03T07:03:34.467Z,101492.74
2018-07-03T07:06:02.857Z,101497.41
2018-07-03T07:08:31.271Z,101499.41
2018-07-03T07:10:59.643Z,101503.63
2018-07-03T07:13:28.050Z,101502.61
2018-07-03T07:15:56.449Z,101505.92
2018-07-03T07:18:24.817Z,101504.86
2018-07-03T07:20:53.357Z,101504.75
2018-07-03T07:23:21.738Z,101504.55
2018-07-03T07:25:50.218Z,101503.05
2018-07-03T07:28:18.590Z,101504.26
2018-07-03T07:30:46.979Z,101501.52
2018-07-03T07:33:15.382Z,101498.30
2018-07-03T07:35:43.793Z,101496.39
2018-07-03T07:38:12.403Z,101502.00
2018-07-03T07:40:40.799Z,101499.14
2018-07-03T07:43:09.174Z,101499.91
2018-07-03T07:45:37.595Z,101496.24
2018-07-03T07:48:06.138Z,101496.98
2018-07-03T07:50:34.527Z,101484.89
2018-07-03T07:53:03.081Z,101497.06
2018-07-03T07:55:31.475Z,101495.55
2018-07-03T07:57:59.844Z,101497.20
2018-07-03T08:00:28.453Z,101495.22
2018-07-03T08:02:56.835Z,101485.34
2018-07-03T08:05:25.255Z,101483.38
2018-07-03T08:07:53.656Z,101480.56
2018-07-03T08:10:22.074Z,101485.67
2018-07-03T08:12:50.511Z,101484.20
2018-07-03T08:15:18.898Z,101492.05
2018-07-03T08:17:47.281Z,101491.45
2018-07-03T08:20:15.670Z,101492.64
2018-07-03T08:22:44.107Z,101497.77
2018-07-03T08:25:12.516Z,101491.00
2018-07-03T08:27:40.887Z,101493.47
2018-07-03T08:30:09.480Z,101500.33
2018-07-03T08:32:38.146Z,101502.30
2018-07-03T08:35:06.787Z,101487.95
2018-07-03T08:37:35.162Z,101489.12
2018-07-03T08:40:03.555Z,101495.97
2018-07-03T08:42:31.958Z,101501.02
2018-07-03T08:45:00.318Z,101507.04
2018-07-03T08:47:28.719Z,101497.17
2018-07-03T08:49:57.129Z,101500.17
2018-07-03T08:52:25.513Z,101498.77
2018-07-03T08:54:53.894Z,101498.23
2018-07-03T08:57:22.295Z,101496.28
2018-07-03T08:59:50.667Z,101501.86
2018-07-03T09:02:19.054Z,101495.11
2018-07-03T09:04:47.443Z,101498.00
2018-07-03T09:07:15.839Z,101491.59
2018-07-03T09:09:44.206Z,101484.40
2018-07-03T09:12:12.606Z,101495.27
2018-07-03T09:14:41.026Z,101491.16
2018-07-03T09:17:14.697Z,101490.30
2018-07-03T09:19:43.107Z,101504.33
2018-07-03T09:22:11.532Z,101505.50
2018-07-03T09:24:40.059Z,101495.06
2018-07-03T09:27:08.590Z,101499.02
2018-07-03T09:29:36.959Z,101503.19
2018-07-03T09:32:05.364Z,101498.62
2018-07-03T09:34:33.786Z,101499.48
2018-07-03T09:37:02.183Z,101488.48
2018-07-03T09:39:30.577Z,101483.81
2018-07-03T09:41:58.969Z,101485.50
2018-07-03T09:44:27.338Z,101485.72
2018-07-03T09:46:55.792Z,101485.72
2018-07-03T09:49:24.158Z,101484.73
2018-07-03T09:51:52.572Z,101478.05
2018-07-03T09:54:21.034Z,101475.65
2018-07-03T09:56:49.431Z,101478.14
2018-07-03T09:59:17.798Z,101477.50
2018-07-03T10:01:46.174Z,101482.59
2018-07-03T10:04:14.595Z,101473.75
2018-07-03T10:06:42.979Z,101480.41
2018-07-03T10:09:12.271Z,101483.33
2018-07-03T10:11:40.930Z,101472.03
2018-07-03T10:14:09.742Z,101462.16
2018-07-03T10:16:38.198Z,101476.41
2018-07-03T10:19:07.022Z,101471.69
2018-07-03T10:21:35.389Z,101464.25
2018-07-03T10:24:03.977Z,101468.45
2018-07-03T10:26:32.543Z,101475.55
2018-07-03T10:29:01.463Z,101463.30
2018-07-03T10:31:30.075Z,101472.56
2018-07-03T10:33:58.509Z,101468.08
2018-07-03T10:36:26.939Z,101469.91
2018-07-03T10:38:55.343Z,101467.95
2018-07-03T10:41:23.710Z,101463.83
2018-07-03T10:43:52.210Z,101467.64
2018-07-03T10:46:20.574Z,101464.14
2018-07-03T10:48:48.973Z,101468.23
2018-07-03T10:51:17.357Z,101468.16
2018-07-03T10:53:45.755Z,101470.91
2018-07-03T10:56:14.130Z,101474.24
2018-07-03T10:58:42.530Z,101464.25
2018-07-03T11:01:10.962Z,101471.95
2018-07-03T11:03:39.345Z,101464.49
2018-07-03T11:06:07.742Z,101465.11
2018-07-03T11:08:36.203Z,101461.78
2018-07-03T11:11:04.582Z,101465.00
2018-07-03T11:13:32.975Z,101462.42
2018-07-03T11:16:01.366Z,101457.14
2018-07-03T11:18:29.753Z,101451.41
2018-07-03T11:20:58.227Z,101451.06
2018-07-03T11:23:26.599Z,101441.38
2018-07-03T11:25:55.014Z,101447.84
2018-07-03T11:28:23.402Z,101451.98
2018-07-03T11:30:51.801Z,101448.34
2018-07-03T11:33:20.170Z,101453.25
2018-07-03T11:35:48.567Z,101444.67
2018-07-03T11:38:16.938Z,101450.23
2018-07-03T11:40:45.325Z,101447.90
2018-07-03T11:43:13.970Z,101448.43
2018-07-03T11:45:42.349Z,101447.09
2018-07-03T11:48:10.801Z,101443.06
2018-07-03T11:50:39.303Z,101432.04
2018-07-03T11:53:07.717Z,101439.95
2018-07-03T11:55:36.332Z,101433.08
2018-07-03T11:58:04.710Z,101433.88
2018-07-03T12:00:33.106Z,101422.75
2018-07-03T12:03:01.475Z,101428.88
2018-07-03T12:05:29.979Z,101427.07
2018-07-03T12:07:58.337Z,101432.41
2018-07-03T12:10:26.732Z,101427.34
2018-07-03T12:12:55.102Z,101424.44
2018-07-03T12:15:23.497Z,101412.23
2018-07-03T12:17:51.863Z,101415.55
2018-07-03T12:20:20.258Z,101421.53
2018-07-03T12:22:48.710Z,101412.17
2018-07-03T12:25:17.103Z,101414.21
2018-07-03T12:27:45.469Z,101413.14
2018-07-03T12:30:14.095Z,101410.09
2018-07-03T12:32:42.466Z,101409.79
2018-07-03T12:35:10.863Z,101411.39
2018-07-03T12:37:39.229Z,101407.38
2018-07-03T12:40:07.650Z,101399.33
2018-07-03T12:42:36.049Z,101403.81
2018-07-03T12:45:04.775Z,101402.48
2018-07-03T12:47:33.171Z,101407.06
2018-07-03T12:50:01.542Z,101399.28
2018-07-03T12:52:29.934Z,101403.93
2018-07-03T12:54:58.339Z,101397.05
2018-07-03T12:57:26.738Z,101394.53
2018-07-03T12:59:55.128Z,101403.70
2018-07-03T13:02:23.568Z,101402.20
2018-07-03T13:04:51.951Z,101396.76
2018-07-03T13:07:20.342Z,101393.63
2018-07-03T13:09:48.714Z,101392.65
2018-07-03T13:12:17.130Z,101388.17
2018-07-03T13:14:45.497Z,101395.55
2018-07-03T13:17:13.902Z,101395.01
2018-07-03T13:19:42.294Z,101387.18
2018-07-03T13:22:10.679Z,101381.89
2018-07-03T13:24:39.055Z,101388.56
2018-07-03T13:27:07.468Z,101388.34
2018-07-03T13:29:35.886Z,101386.20
2018-07-03T13:32:04.285Z,101384.01
2018-07-03T13:34:32.663Z,101377.81
2018-07-03T13:37:01.059Z,101371.42
2018-07-03T13:39:29.431Z,101376.80
2018-07-03T13:41:57.817Z,101373.86
2018-07-03T13:44:26.217Z,101370.48
2018-07-03T13:46:54.607Z,101365.30
2018-07-03T13:49:22.978Z,101365.83
2018-07-03T13:51:51.366Z,101373.48
2018-07-03T13:54:19.737Z,101372.36
2018-07-03T13:56:48.137Z,101366.72
2018-07-03T13:59:16.510Z,101355.33
2018-07-03T14:01:45.099Z,101362.63
2018-07-03T14:04:13.506Z,101358.92
2018-07-03T14:06:41.911Z,101358.92
2018-07-03T14:09:10.471Z,101357.66
2018-07-03T14:11:38.922Z,101353.04
2018-07-03T14:14:07.659Z,101353.11
2018-07-03T14:16:36.063Z,101350.81
2018-07-03T14:19:04.463Z,101353.55
2018-07-03T14:21:32.848Z,101349.60
2018-07-03T14:24:01.242Z,101337.70
2018-07-03T14:26:29.610Z,101343.36
2018-07-03T14:28:58.007Z,101342.75
2018-07-03T14:31:26.387Z,101343.16
2018-07-03T14:33:54.786Z,101336.90
2018-07-03T14:36:23.199Z,101337.31
2018-07-03T14:38:51.570Z,101340.30
2018-07-03T14:41:19.999Z,101334.95
2018-07-03T14:43:48.400Z,101333.98
2018-07-03T14:46:16.775Z,101337.69
2018-07-03T14:48:45.175Z,101335.86
2018-07-03T14:51:13.542Z,101329.99
2018-07-03T14:53:41.947Z,101340.74
2018-07-03T14:56:10.330Z,101340.12
2018-07-03T14:58:38.722Z,101349.78
2018-07-03T15:01:07.107Z,101343.84
2018-07-03T15:03:35.514Z,101343.89
2018-07-03T15:06:03.906Z,101343.66
2018-07-03T15:08:32.363Z,101339.90
2018-07-03T15:11:00.737Z,101336.06
2018-07-03T15:13:29.157Z,101339.39
2018-07-03T15:15:57.529Z,101340.97
2018-07-03T15:18:30.078Z,101338.55
2018-07-03T15:20:58.448Z,101336.05
2018-07-03T15:23:26.862Z,101336.59
2018-07-03T15:25:55.244Z,101344.30
2018-07-03T15:28:23.699Z,101348.86
2018-07-03T15:30:52.074Z,101345.09
2018-07-03T15:33:20.448Z,101340.36
2018-07-03T15:35:48.852Z,101343.58
2018-07-03T15:38:17.229Z,101345.09
2018-07-03T15:40:45.623Z,101340.36
2018-07-03T15:43:14.007Z,101342.52
2018-07-03T15:45:42.401Z,101336.08
2018-07-03T15:48:10.769Z,101332.61
2018-07-03T15:50:39.162Z,101341.10
2018-07-03T15:53:07.529Z,101343.84
2018-07-03T15:55:35.925Z,101334.66
2018-07-03T15:58:04.319Z,101340.48
2018-07-03T16:00:32.741Z,101336.47
2018-07-03T16:03:12.378Z,101339.14
2018-07-03T16:05:57.649Z,101340.10
2018-07-03T16:09:07.018Z,101332.09
2018-07-03T16:11:35.417Z,101339.63
2018-07-03T16:14:03.832Z,101343.22
2018-07-03T16:16:32.382Z,101342.77
2018-07-03T16:19:06.143Z,101349.83
2018-07-03T16:21:34.533Z,101342.53
2018-07-03T16:24:02.907Z,101334.98
2018-07-03T16:26:31.298Z,101337.12
2018-07-03T16:28:59.679Z,101328.55
2018-07-03T16:31:28.085Z,101340.17
2018-07-03T16:33:57.263Z,101339.37
2018-07-03T16:36:25.862Z,101337.03
2018-07-03T16:38:54.324Z,101337.09
2018-07-03T16:41:22.745Z,101336.36
2018-07-03T16:43:51.114Z,101339.16
2018-07-03T16:46:19.511Z,101341.88
2018-07-03T16:48:47.883Z,101345.86
2018-07-03T16:51:16.399Z,101339.52
2018-07-03T16:53:44.788Z,101348.25
2018-07-03T16:56:13.170Z,101335.63
2018-07-03T16:58:41.597Z,101342.05
2018-07-03T17:01:10.526Z,101339.34
2018-07-03T17:03:39.067Z,101341.72
2018-07-03T17:06:07.726Z,101340.54
2018-07-03T17:08:36.247Z,101339.20
2018-07-03T17:11:05.109Z,101341.31
2018-07-03T17:13:33.533Z,101335.16
2018-07-03T17:16:01.942Z,101345.31
2018-07-03T17:18:31.799Z,101341.22
2018-07-03T17:21:00.206Z,101343.00
2018-07-03T17:23:28.859Z,101345.31
2018-07-03T17:25:57.422Z,101346.00
2018-07-03T17:28:26.239Z,101341.30
2018-07-03T17:30:54.618Z,101341.66
2018-07-03T17:33:23.022Z,101344.44
2018-07-03T17:35:51.423Z,101348.10
2018-07-03T17:38:19.865Z,101352.62
2018-07-03T17:40:59.856Z,101345.63
2018-07-03T17:44:10.270Z,101346.84
2018-07-03T17:46:38.714Z,101347.55
2018-07-03T17:49:07.436Z,101354.09
2018-07-03T17:51:36.086Z,101348.59
2018-07-03T17:54:04.607Z,101342.66
2018-07-03T17:56:32.990Z,101347.41
2018-07-03T17:59:01.582Z,101347.70
2018-07-03T18:01:29.998Z,101350.53
2018-07-03T18:03:58.421Z,101348.28
2018-07-03T18:06:26.798Z,101349.59
2018-07-03T18:08:55.220Z,101349.48
2018-07-03T18:11:23.595Z,101347.83
2018-07-03T18:13:51.990Z,101359.11
2018-07-03T18:16:20.617Z,101356.17
2018-07-03T18:18:54.422Z,101359.79
2018-07-03T18:21:22.858Z,101359.08
2018-07-03T18:23:51.521Z,101362.05
2018-07-03T18:26:20.031Z,101370.23
2018-07-03T18:28:48.434Z,101370.38
2018-07-03T18:31:17.077Z,101370.95
2018-07-03T18:33:45.682Z,101368.67
2018-07-03T18:36:14.083Z,101371.83
2018-07-03T18:38:42.562Z,101381.75
2018-07-03T18:41:10.960Z,101376.58
2018-07-03T18:43:39.488Z,101382.03
2018-07-03T18:46:07.909Z,101376.36
2018-07-03T18:48:36.487Z,101380.64
2018-07-03T18:51:04.909Z,101383.66
2018-07-03T18:53:33.339Z,101385.35
2018-07-03T18:56:01.936Z,101384.81
2018-07-03T18:58:30.374Z,101382.52
2018-07-03T19:00:58.830Z,101386.06
2018-07-03T19:03:27.486Z,101390.90
2018-07-03T19:05:55.966Z,101394.72
2018-07-03T19:08:24.475Z,101395.91
2018-07-03T19:10:53.128Z,101390.94
2018-07-03T19:13:21.613Z,101391.62
2018-07-03T19:15:50.017Z,101396.68
2018-07-03T19:18:18.473Z,101389.44
2018-07-03T19:20:47.105Z,101391.87
2018-07-03T19:23:15.541Z,101397.81
2018-07-03T19:25:44.115Z,101398.98
2018-07-03T19:28:12.704Z,101391.70
2018-07-03T19:30:41.130Z,101396.34
2018-07-03T19:33:09.564Z,101403.61
2018-07-03T19:35:38.066Z,101403.80
2018-07-03T19:38:06.631Z,101408.41
2018-07-03T19:40:35.113Z,101405.09
2018-07-03T19:43:22.762Z,101403.92
2018-07-03T19:45:52.078Z,101404.24
2018-07-03T19:48:20.650Z,101402.30
2018-07-03T19:50:50.696Z,101408.77
2018-07-03T19:53:19.194Z,101402.86
2018-07-03T19:55:48.697Z,101400.88
2018-07-03T19:58:17.646Z,101401.03
2018-07-03T20:00:46.439Z,101400.83
2018-07-03T20:03:14.953Z,101407.62
2018-07-03T20:05:43.502Z,101399.42
2018-07-03T20:08:12.003Z,101404.07
2018-07-03T20:10:41.467Z,101409.16
2018-07-03T20:13:12.167Z,101406.32
2018-07-03T20:15:40.553Z,101408.74
2018-07-03T20:18:10.305Z,101406.80
2018-07-03T20:20:38.710Z,101408.78
2018-07-03T20:23:07.119Z,101410.67
2018-07-03T20:25:36.258Z,101408.64
2018-07-03T20:28:04.774Z,101407.95
2018-07-03T20:30:33.212Z,101412.02
2018-07-03T20:33:01.594Z,101411.72
2018-07-03T20:35:29.978Z,101413.20
2018-07-03T20:38:00.534Z,101412.05
2018-07-03T20:40:33.941Z,101409.12
2018-07-03T20:43:02.480Z,101411.45
2018-07-03T20:45:30.858Z,101413.34
2018-07-03T20:47:59.255Z,101413.02
2018-07-03T20:50:27.618Z,101409.21
2018-07-03T20:52:56.019Z,101405.78
2018-07-03T20:55:26.042Z,101401.55
2018-07-03T20:57:54.464Z,101408.23
2018-07-03T21:00:22.834Z,101403.50
2018-07-03T21:02:51.227Z,101404.95
2018-07-03T21:05:19.617Z,101408.12
2018-07-03T21:07:47.997Z,101400.30
2018-07-03T21:10:16.371Z,101406.55
2018-07-03T21:12:44.774Z,101393.45
2018-07-03T21:15:13.149Z,101402.36
2018-07-03T21:17:41.515Z,101400.29
2018-07-03T21:20:09.910Z,101399.52
2018-07-03T21:22:38.282Z,101396.09
2018-07-03T21:25:06.670Z,101397.95
2018-07-03T21:27:35.045Z,101401.98
2018-07-03T21:30:03.442Z,101403.83
2018-07-03T21:32:31.884Z,101401.76
2018-07-03T21:35:00.273Z,101408.00
2018-07-03T21:37:28.639Z,101401.94
2018-07-03T21:39:57.032Z,101406.86
2018-07-03T21:42:25.404Z,101400.38
2018-07-03T21:44:53.797Z,101413.66
2018-07-03T21:47:22.167Z,101405.41
2018-07-03T21:49:50.562Z,101409.87
2018-07-03T21:52:18.926Z,101408.66
2018-07-03T21:54:47.319Z,101404.41
2018-07-03T21:57:15.682Z,101409.73
2018-07-03T21:59:44.081Z,101408.92
2018-07-03T22:02:12.446Z,101409.87
2018-07-03T22:04:41.083Z,101413.50
2018-07-03T22:07:09.491Z,101414.90
2018-07-03T22:09:37.887Z,101413.22
2018-07-03T22:12:06.283Z,101415.06
2018-07-03T22:14:37.581Z,101417.31
2018-07-03T22:17:06.477Z,101414.77
2018-07-03T22:19:34.870Z,101417.43
2018-07-03T22:22:03.243Z,101416.63
2018-07-03T22:24:31.797Z,101422.86
2018-07-03T22:27:00.186Z,101422.44
2018-07-03T22:29:28.590Z,101426.44
2018-07-03T22:31:56.963Z,101421.70
2018-07-03T22:34:25.625Z,101428.73
2018-07-03T22:36:54.181Z,101426.16
2018-07-03T22:39:22.609Z,101429.71
2018-07-03T22:41:50.985Z,101431.94
2018-07-03T22:44:19.385Z,101433.28
2018-07-03T22:46:47.791Z,101437.23
2018-07-03T22:49:16.162Z,101433.77
2018-07-03T22:51:44.550Z,101429.84
2018-07-03T22:54:12.925Z,101433.83
2018-07-03T22:56:41.452Z,101437.76
2018-07-03T22:59:09.838Z,101437.78
2018-07-03T23:01:38.232Z,101437.36
2018-07-03T23:04:06.651Z,101437.80
2018-07-03T23:06:35.038Z,101444.83
2018-07-03T23:09:03.647Z,101435.65
2018-07-03T23:11:32.029Z,101441.77
2018-07-03T23:14:00.445Z,101440.05
2018-07-03T23:16:28.840Z,101437.42
2018-07-03T23:18:57.211Z,101438.78
2018-07-03T23:21:25.603Z,101433.10
2018-07-03T23:23:53.966Z,101435.71
2018-07-03T23:26:22.361Z,101437.05
2018-07-03T23:28:51.060Z,101429.63
2018-07-03T23:31:19.626Z,101434.44
2018-07-03T23:33:47.973Z,101431.84
2018-07-03T23:36:16.366Z,101434.46
2018-07-03T23:38:44.746Z,101434.94
2018-07-03T23:41:13.143Z,101434.48
2018-07-03T23:43:41.518Z,101432.33
2018-07-03T23:46:08.850Z,101430.56
2018-07-03T23:48:48.527Z,101431.45
2018-07-03T23:51:28.289Z,101431.01
2018-07-03T23:54:08.015Z,101431.89
2018-07-03T23:56:47.801Z,101427.98
2018-07-03T23:59:27.515Z,101425.75
